createdAt,value
2023-04-14T00:00:38.388Z,99.90
2023-04-14T00:03:20.054Z,99.90
2023-04-14T00:05:48.736Z,99.90
2023-04-14T00:08:18.382Z,99.90
2023-04-14T00:10:46.852Z,99.90
2023-04-14T00:13:15.041Z,99.90
2023-04-14T00:15:43.631Z,99.90
2023-04-14T00:18:11.788Z,99.90
2023-04-14T00:20:40.365Z,99.90
2023-04-14T00:23:08.992Z,99.90
2023-04-14T00:25:38.858Z,99.90
2023-04-14T00:28:07.159Z,99.90
2023-04-14T00:30:35.619Z,99.90
2023-04-14T00:33:03.877Z,99.90
2023-04-14T00:35:33.346Z,99.90
2023-04-14T00:38:01.624Z,99.90
2023-04-14T00:40:30.864Z,99.90
2023-04-14T00:43:00.495Z,99.90
2023-04-14T00:45:29.422Z,99.90
2023-04-14T00:47:59.309Z,99.90
2023-04-14T00:50:27.848Z,99.90
2023-04-14T00:52:57.679Z,99.90
2023-04-14T00:55:27.020Z,99.90
2023-04-14T00:57:56.318Z,99.90
2023-04-14T01:00:26.367Z,99.90
2023-04-14T01:02:54.783Z,99.90
2023-04-14T01:05:23.512Z,99.90
2023-04-14T01:07:51.928Z,99.90
2023-04-14T01:10:44.857Z,99.90
2023-04-14T01:13:26.499Z,99.90
2023-04-14T01:16:01.381Z,99.90
2023-04-14T01:18:42.275Z,99.90
2023-04-14T01:21:15.579Z,99.90
2023-04-14T01:24:05.721Z,99.90
2023-04-14T01:26:35.495Z,99.90
2023-04-14T01:29:34.890Z,99.90
2023-04-14T01:32:07.184Z,99.90
2023-04-14T01:34:52.728Z,99.90
2023-04-14T01:37:30.745Z,99.90
2023-04-14T01:40:03.067Z,99.90
2023-04-14T01:42:34.876Z,99.90
2023-04-14T01:45:09.522Z,99.90
2023-04-14T01:47:39.889Z,99.90
2023-04-14T01:50:11.490Z,99.90
2023-04-14T01:52:41.721Z,99.90
2023-04-14T01:55:11.675Z,99.90
2023-04-14T01:57:41.639Z,99.90
2023-04-14T02:00:12.109Z,99.90
2023-04-14T02:02:43.942Z,99.90
2023-04-14T02:05:13.904Z,99.90
2023-04-14T02:07:43.067Z,99.90
2023-04-14T02:10:12.131Z,99.90
2023-04-14T02:12:43.210Z,99.90
2023-04-14T02:15:16.128Z,99.90
2023-04-14T02:17:49.865Z,99.90
2023-04-14T02:20:21.040Z,99.90
2023-04-14T02:22:49.725Z,99.90
2023-04-14T02:25:18.226Z,99.90
2023-04-14T02:27:51.109Z,99.90
2023-04-14T02:30:24.816Z,99.90
2023-04-14T02:33:02.982Z,99.90
2023-04-14T02:35:38.087Z,99.90
2023-04-14T02:38:09.664Z,99.90
2023-04-14T02:40:41.958Z,99.90
2023-04-14T02:43:14.968Z,99.90
2023-04-14T02:45:47.001Z,99.90
2023-04-14T02:48:19.193Z,99.90
2023-04-14T02:50:50.922Z,99.90
2023-04-14T02:53:23.478Z,99.90
2023-04-14T02:55:52.471Z,99.90
2023-04-14T02:58:21.996Z,99.90
2023-04-14T03:00:52.191Z,99.90
2023-04-14T03:03:22.641Z,99.90
2023-04-14T03:05:51.348Z,99.90
2023-04-14T03:08:20.629Z,99.90
2023-04-14T03:10:50.791Z,99.90
2023-04-14T03:13:20.503Z,99.90
2023-04-14T03:15:50.049Z,99.90
2023-04-14T03:18:19.785Z,99.90
2023-04-14T03:20:51.857Z,99.90
2023-04-14T03:23:22.935Z,99.90
2023-04-14T03:25:53.041Z,99.90
2023-04-14T03:28:24.634Z,99.90
2023-04-14T03:30:55.157Z,99.90
2023-04-14T03:33:27.673Z,99.90
2023-04-14T03:35:58.593Z,99.90
2023-04-14T03:38:28.817Z,99.90
2023-04-14T03:41:01.158Z,99.90
2023-04-14T03:43:30.485Z,99.90
2023-04-14T03:45:59.273Z,99.90
2023-04-14T03:48:29.942Z,99.90
2023-04-14T03:51:02.643Z,99.90
2023-04-14T03:53:34.798Z,99.90
2023-04-14T03:56:04.704Z,99.90
2023-04-14T03:58:34.311Z,99.90
2023-04-14T04:01:03.669Z,99.90
2023-04-14T04:03:34.101Z,99.90
2023-04-14T04:06:04.800Z,99.90
2023-04-14T04:08:36.104Z,99.90
2023-04-14T04:11:08.475Z,99.90
2023-04-14T04:13:38.788Z,99.90
2023-04-14T04:16:10.268Z,99.90
2023-04-14T04:18:40.758Z,99.90
2023-04-14T04:21:11.944Z,99.90
2023-04-14T04:23:43.320Z,99.90
2023-04-14T04:26:11.917Z,99.90
2023-04-14T04:28:41.370Z,99.90
2023-04-14T04:31:11.590Z,99.90
2023-04-14T04:33:41.057Z,99.90
2023-04-14T04:36:12.825Z,99.90
2023-04-14T04:38:43.047Z,99.90
2023-04-14T04:41:22.193Z,99.90
2023-04-14T04:43:50.793Z,99.90
2023-04-14T04:46:44.069Z,99.90
2023-04-14T04:49:12.626Z,99.90
2023-04-14T04:51:42.380Z,99.90
2023-04-14T04:54:11.233Z,99.90
2023-04-14T04:56:39.597Z,99.90
2023-04-14T04:59:08.594Z,99.90
2023-04-14T05:01:37.366Z,99.90
2023-04-14T05:04:06.206Z,99.90
2023-04-14T05:06:37.112Z,99.90
2023-04-14T05:09:07.168Z,99.90
2023-04-14T05:11:35.698Z,99.90
2023-04-14T05:14:04.351Z,99.90
2023-04-14T05:16:33.519Z,99.90
2023-04-14T05:19:03.094Z,99.90
2023-04-14T05:21:31.512Z,99.90
2023-04-14T05:24:00.514Z,99.90
2023-04-14T05:26:52.003Z,99.90
2023-04-14T05:29:19.720Z,99.90
2023-04-14T05:31:48.353Z,99.90
2023-04-14T05:34:17.105Z,99.90
2023-04-14T05:36:45.476Z,99.90
2023-04-14T05:39:14.519Z,99.90
2023-04-14T05:41:44.113Z,99.90
2023-04-14T05:44:12.975Z,99.90
2023-04-14T05:46:41.369Z,99.90
2023-04-14T05:49:10.686Z,99.90
2023-04-14T05:51:39.301Z,99.90
2023-04-14T05:54:08.201Z,99.90
2023-04-14T05:56:36.824Z,99.90
2023-04-14T05:59:06.933Z,99.90
2023-04-14T06:01:35.566Z,99.90
2023-04-14T06:04:05.028Z,99.90
2023-04-14T06:06:33.700Z,99.90
2023-04-14T06:09:02.315Z,99.90
2023-04-14T06:11:30.839Z,99.90
2023-04-14T06:14:02.274Z,99.90
2023-04-14T06:16:32.307Z,99.90
2023-04-14T06:19:01.460Z,99.90
2023-04-14T06:21:29.999Z,99.90
2023-04-14T06:23:58.821Z,99.90
2023-04-14T06:26:27.365Z,99.90
2023-04-14T06:28:57.341Z,99.90
2023-04-14T06:31:25.713Z,99.90
2023-04-14T06:33:55.643Z,99.90
2023-04-14T06:36:24.011Z,99.90
2023-04-14T06:38:52.649Z,99.90
2023-04-14T06:41:21.078Z,99.90
2023-04-14T06:43:49.613Z,99.90
2023-04-14T06:46:18.166Z,99.90
2023-04-14T06:48:46.973Z,99.90
2023-04-14T06:51:16.494Z,99.90
2023-04-14T06:53:45.199Z,99.90
2023-04-14T06:56:13.576Z,99.90
2023-04-14T06:58:42.251Z,99.90
2023-04-14T07:01:10.680Z,99.90
2023-04-14T07:03:39.971Z,99.90
2023-04-14T07:06:11.650Z,99.90
2023-04-14T07:08:41.598Z,99.90
2023-04-14T07:11:11.461Z,99.90
2023-04-14T07:13:40.831Z,99.90
2023-04-14T07:16:09.478Z,99.90
2023-04-14T07:18:38.137Z,99.90
2023-04-14T07:21:06.426Z,99.90
2023-04-14T07:23:34.991Z,99.90
2023-04-14T07:26:05.058Z,99.90
2023-04-14T07:28:33.731Z,99.90
2023-04-14T07:31:09.176Z,99.90
2023-04-14T07:33:37.918Z,99.90
2023-04-14T07:36:07.338Z,99.90
2023-04-14T07:38:35.977Z,99.90
2023-04-14T07:41:07.530Z,99.90
2023-04-14T07:43:36.242Z,99.90
2023-04-14T07:46:05.794Z,99.90
2023-04-14T07:48:35.824Z,99.90
2023-04-14T07:51:04.586Z,99.90
2023-04-14T07:53:33.518Z,99.90
2023-04-14T07:56:01.968Z,99.90
2023-04-14T07:58:31.860Z,99.90
2023-04-14T08:01:00.270Z,99.90
2023-04-14T08:03:28.902Z,99.90
2023-04-14T08:05:58.282Z,99.90
2023-04-14T08:08:27.183Z,99.90
2023-04-14T08:10:55.804Z,99.90
2023-04-14T08:13:24.465Z,99.90
2023-04-14T08:15:54.120Z,99.90
2023-04-14T08:18:22.883Z,99.90
2023-04-14T08:20:51.195Z,99.90
2023-04-14T08:23:20.980Z,99.90
2023-04-14T08:25:49.642Z,99.90
2023-04-14T08:28:18.425Z,99.90
2023-04-14T08:30:47.805Z,99.90
2023-04-14T08:33:17.761Z,99.90
2023-04-14T08:35:46.023Z,99.90
2023-04-14T08:38:25.814Z,99.90
2023-04-14T08:40:57.401Z,99.90
2023-04-14T08:43:25.930Z,99.90
2023-04-14T08:45:55.578Z,99.90
2023-04-14T08:48:30.539Z,99.90
2023-04-14T08:51:07.930Z,99.90
2023-04-14T08:53:45.394Z,99.90
2023-04-14T08:56:16.317Z,99.90
2023-04-14T08:58:45.810Z,99.90
2023-04-14T09:01:14.525Z,99.90
2023-04-14T09:03:45.286Z,99.90
2023-04-14T09:06:14.475Z,99.60
2023-04-14T09:08:44.588Z,99.00
2023-04-14T09:11:13.815Z,99.10
2023-04-14T09:13:44.810Z,98.80
2023-04-14T09:16:14.433Z,98.40
2023-04-14T09:18:47.227Z,98.00
2023-04-14T09:21:49.655Z,97.70
2023-04-14T09:24:08.256Z,97.20
2023-04-14T09:26:37.721Z,97.60
2023-04-14T09:29:06.747Z,96.90
2023-04-14T09:31:35.944Z,96.70
2023-04-14T09:34:16.226Z,96.80
2023-04-14T09:37:01.742Z,96.80
2023-04-14T09:39:31.358Z,96.60
2023-04-14T09:42:00.218Z,96.10
2023-04-14T09:44:28.961Z,96.20
2023-04-14T09:46:59.051Z,95.90
2023-04-14T09:49:30.022Z,95.60
2023-04-14T09:52:06.517Z,95.80
2023-04-14T09:54:35.091Z,96.10
2023-04-14T09:57:04.229Z,96.20
2023-04-14T09:59:35.001Z,96.20
2023-04-14T10:02:18.378Z,96.50
2023-04-14T10:05:05.468Z,96.50
2023-04-14T10:07:34.520Z,96.50
2023-04-14T10:10:08.695Z,96.50
2023-04-14T10:12:37.094Z,96.70
2023-04-14T10:15:06.382Z,96.80
2023-04-14T10:17:34.773Z,97.00
2023-04-14T10:20:23.176Z,97.10
2023-04-14T10:22:52.632Z,97.60
2023-04-14T10:25:21.726Z,97.70
2023-04-14T10:27:51.164Z,97.80
2023-04-14T10:30:19.931Z,97.80
2023-04-14T10:32:48.893Z,97.70
2023-04-14T10:35:20.716Z,97.60
2023-04-14T10:37:53.669Z,97.50
2023-04-14T10:40:23.435Z,97.40
2023-04-14T10:42:55.631Z,97.30
2023-04-14T10:45:24.531Z,97.10
2023-04-14T10:47:53.229Z,96.90
2023-04-14T10:50:26.024Z,96.50
2023-04-14T10:52:56.646Z,96.30
2023-04-14T10:55:26.709Z,95.70
2023-04-14T10:58:05.146Z,95.30
2023-04-14T11:00:39.247Z,95.00
2023-04-14T11:03:13.891Z,94.80
2023-04-14T11:05:46.059Z,94.60
2023-04-14T11:08:15.838Z,94.70
2023-04-14T11:11:02.389Z,94.90
2023-04-14T11:13:31.742Z,94.90
2023-04-14T11:16:04.825Z,94.80
2023-04-14T11:18:35.726Z,95.00
2023-04-14T11:21:07.849Z,95.00
2023-04-14T11:23:37.232Z,94.70
2023-04-14T11:26:07.211Z,94.60
2023-04-14T11:28:36.999Z,94.60
2023-04-14T11:31:07.154Z,94.50
2023-04-14T11:33:37.582Z,94.50
2023-04-14T11:36:09.824Z,94.60
2023-04-14T11:38:40.540Z,94.60
2023-04-14T11:41:09.813Z,94.80
2023-04-14T11:43:39.081Z,94.90
2023-04-14T11:46:08.987Z,94.90
2023-04-14T11:48:38.209Z,95.00
2023-04-14T11:51:08.397Z,95.00
2023-04-14T11:53:40.511Z,95.10
2023-04-14T11:56:09.360Z,95.10
2023-04-14T11:58:37.884Z,95.10
2023-04-14T12:01:06.586Z,95.30
2023-04-14T12:03:35.738Z,95.10
2023-04-14T12:06:04.678Z,95.20
2023-04-14T12:08:35.097Z,95.10
2023-04-14T12:11:14.340Z,95.20
2023-04-14T12:13:43.463Z,95.10
2023-04-14T12:16:12.570Z,94.80
2023-04-14T12:18:41.213Z,94.70
2023-04-14T12:21:11.950Z,94.60
2023-04-14T12:23:42.368Z,94.40
2023-04-14T12:26:12.767Z,94.50
2023-04-14T12:28:42.351Z,94.50
2023-04-14T12:31:11.915Z,94.60
2023-04-14T12:33:40.421Z,94.70
2023-04-14T12:36:13.032Z,94.90
2023-04-14T12:38:42.875Z,95.10
2023-04-14T12:41:11.915Z,95.00
2023-04-14T12:43:41.498Z,94.80
2023-04-14T12:46:10.112Z,94.90
2023-04-14T12:48:44.801Z,95.10
2023-04-14T12:51:15.164Z,95.10
2023-04-14T12:53:46.648Z,95.40
2023-04-14T12:56:17.606Z,95.60
2023-04-14T12:58:47.723Z,95.70
2023-04-14T13:01:18.297Z,96.00
2023-04-14T13:03:49.964Z,96.10
2023-04-14T13:06:20.261Z,96.10
2023-04-14T13:08:51.321Z,96.00
2023-04-14T13:11:21.249Z,95.60
2023-04-14T13:13:49.665Z,95.40
2023-04-14T13:16:18.782Z,95.50
2023-04-14T13:18:48.730Z,95.50
2023-04-14T13:21:17.712Z,95.50
2023-04-14T13:23:46.017Z,95.90
2023-04-14T13:26:16.390Z,95.60
2023-04-14T13:28:44.657Z,95.60
2023-04-14T13:31:17.265Z,95.70
2023-04-14T13:33:45.989Z,95.40
2023-04-14T13:36:14.874Z,95.60
2023-04-14T13:38:43.334Z,95.60
2023-04-14T13:41:11.975Z,95.70
2023-04-14T13:43:41.697Z,95.80
2023-04-14T13:46:11.466Z,95.80
2023-04-14T13:48:39.876Z,95.80
2023-04-14T13:51:08.581Z,95.80
2023-04-14T13:53:36.827Z,95.60
2023-04-14T13:56:06.020Z,95.60
2023-04-14T13:58:34.478Z,95.50
2023-04-14T14:01:12.290Z,95.50
2023-04-14T14:03:41.517Z,95.40
2023-04-14T14:06:10.552Z,95.50
2023-04-14T14:08:39.226Z,95.50
2023-04-14T14:11:08.303Z,95.60
2023-04-14T14:13:38.770Z,95.70
2023-04-14T14:16:08.808Z,95.60
2023-04-14T14:18:39.310Z,95.50
2023-04-14T14:21:08.016Z,95.40
2023-04-14T14:23:36.471Z,95.30
2023-04-14T14:26:05.215Z,95.30
2023-04-14T14:28:33.815Z,95.30
2023-04-14T14:31:03.379Z,95.20
2023-04-14T14:33:32.746Z,94.80
2023-04-14T14:36:02.749Z,94.80
2023-04-14T14:38:31.408Z,94.80
2023-04-14T14:41:00.033Z,94.70
2023-04-14T14:43:28.373Z,94.90
2023-04-14T14:45:56.952Z,95.10
2023-04-14T14:48:25.881Z,95.10
2023-04-14T14:50:54.382Z,95.00
2023-04-14T14:53:24.007Z,95.00
2023-04-14T14:55:52.484Z,95.00
2023-04-14T14:58:20.697Z,95.00
2023-04-14T15:00:49.526Z,94.90
2023-04-14T15:03:18.140Z,94.80
2023-04-14T15:05:47.532Z,94.70
2023-04-14T15:08:16.161Z,94.60
2023-04-14T15:10:46.288Z,94.40
2023-04-14T15:13:14.785Z,94.10
2023-04-14T15:15:43.640Z,94.10
2023-04-14T15:18:12.331Z,94.10
2023-04-14T15:20:42.700Z,94.10
2023-04-14T15:23:11.284Z,93.90
2023-04-14T15:25:39.848Z,93.90
2023-04-14T15:28:09.618Z,93.90
2023-04-14T15:30:38.119Z,94.00
2023-04-14T15:33:06.695Z,94.00
2023-04-14T15:35:38.664Z,94.00
2023-04-14T15:38:07.274Z,93.90
2023-04-14T15:40:36.377Z,93.80
2023-04-14T15:43:04.980Z,93.80
2023-04-14T15:45:35.126Z,93.90
2023-04-14T15:48:03.561Z,93.80
2023-04-14T15:50:32.118Z,93.90
2023-04-14T15:53:00.609Z,93.90
2023-04-14T15:55:29.309Z,94.00
2023-04-14T15:57:57.663Z,94.00
2023-04-14T16:00:26.426Z,94.10
2023-04-14T16:02:56.800Z,94.00
2023-04-14T16:05:25.622Z,94.00
2023-04-14T16:07:54.269Z,94.00
2023-04-14T16:10:22.991Z,94.00
2023-04-14T16:12:51.292Z,94.00
2023-04-14T16:15:20.063Z,94.40
2023-04-14T16:17:48.328Z,94.00
2023-04-14T16:20:19.331Z,94.10
2023-04-14T16:22:49.312Z,94.10
2023-04-14T16:25:18.075Z,94.20
2023-04-14T16:27:46.357Z,94.20
2023-04-14T16:30:15.316Z,94.30
2023-04-14T16:32:44.203Z,94.40
2023-04-14T16:35:12.840Z,94.50
2023-04-14T16:37:42.531Z,94.70
2023-04-14T16:40:11.840Z,94.70
2023-04-14T16:42:40.165Z,94.80
2023-04-14T16:45:09.416Z,94.90
2023-04-14T16:47:37.636Z,95.00
2023-04-14T16:50:06.628Z,95.10
2023-04-14T16:52:35.686Z,95.20
2023-04-14T16:55:05.906Z,95.30
2023-04-14T16:57:34.441Z,95.40
2023-04-14T17:00:03.312Z,95.50
2023-04-14T17:02:31.886Z,95.50
2023-04-14T17:05:00.401Z,95.60
2023-04-14T17:07:30.736Z,95.70
2023-04-14T17:09:59.385Z,95.80
2023-04-14T17:12:29.362Z,96.00
2023-04-14T17:14:57.617Z,96.00
2023-04-14T17:17:26.645Z,96.20
2023-04-14T17:19:55.779Z,96.30
2023-04-14T17:22:27.049Z,96.40
2023-04-14T17:24:56.209Z,96.60
2023-04-14T17:27:24.687Z,96.70
2023-04-14T17:29:54.702Z,96.90
2023-04-14T17:32:23.492Z,97.10
2023-04-14T17:34:52.585Z,97.80
2023-04-14T17:37:21.319Z,97.60
2023-04-14T17:39:50.104Z,97.90
2023-04-14T17:42:19.017Z,98.20
2023-04-14T17:44:47.437Z,98.50
2023-04-14T17:47:17.638Z,98.60
2023-04-14T17:49:46.033Z,98.90
2023-04-14T17:52:14.795Z,99.30
2023-04-14T17:54:43.187Z,99.50
2023-04-14T17:57:12.919Z,99.80
2023-04-14T17:59:41.729Z,99.90
2023-04-14T18:02:14.030Z,99.90
2023-04-14T18:04:44.058Z,99.90
2023-04-14T18:07:12.866Z,99.90
2023-04-14T18:09:41.182Z,99.90
2023-04-14T18:12:10.733Z,99.90
2023-04-14T18:14:39.508Z,99.90
2023-04-14T18:17:08.104Z,99.90
2023-04-14T18:19:36.657Z,99.90
2023-04-14T18:22:06.662Z,99.90
2023-04-14T18:29:38.376Z,99.90
2023-04-14T18:32:06.948Z,99.90
2023-04-14T18:34:35.467Z,99.90
2023-04-14T18:37:04.122Z,99.90
2023-04-14T18:39:36.364Z,99.90
2023-04-14T18:42:05.319Z,99.90
2023-04-14T18:44:33.804Z,99.90
2023-04-14T18:47:02.408Z,99.90
2023-04-14T18:49:30.848Z,99.90
2023-04-14T18:51:59.373Z,99.90
2023-04-14T18:54:27.666Z,99.90
2023-04-14T18:56:57.981Z,99.90
2023-04-14T18:59:26.325Z,99.90
2023-04-14T19:01:55.045Z,99.90
2023-04-14T19:04:23.421Z,99.90
2023-04-14T19:06:52.268Z,99.90
2023-04-14T19:09:20.673Z,99.90
2023-04-14T19:11:49.591Z,99.90
2023-04-14T19:14:19.107Z,99.90
2023-04-14T19:16:47.829Z,99.90
2023-04-14T19:19:16.739Z,99.90
2023-04-14T19:21:45.279Z,99.90
2023-04-14T19:24:13.586Z,99.90
2023-04-14T19:26:42.101Z,99.90
2023-04-14T19:29:10.490Z,99.90
2023-04-14T19:31:40.930Z,99.90
2023-04-14T19:34:09.213Z,99.90
2023-04-14T19:36:37.826Z,99.90
2023-04-14T19:39:06.231Z,99.90
2023-04-14T19:41:34.889Z,99.90
2023-04-14T19:44:04.677Z,99.90
2023-04-14T19:46:35.657Z,99.90
2023-04-14T19:49:05.408Z,99.90
2023-04-14T19:51:35.018Z,99.90
2023-04-14T19:54:05.322Z,99.90
2023-04-14T19:56:34.002Z,99.90
2023-04-14T19:59:02.929Z,99.90
2023-04-14T20:01:32.460Z,99.90
2023-04-14T20:04:09.641Z,99.90
2023-04-14T20:06:42.894Z,99.90
2023-04-14T20:09:11.151Z,99.90
2023-04-14T20:11:39.812Z,99.90
2023-04-14T20:14:08.258Z,99.90
2023-04-14T20:16:36.940Z,99.90
2023-04-14T20:19:05.342Z,99.90
2023-04-14T20:21:33.824Z,99.90
2023-04-14T20:24:04.032Z,99.90
2023-04-14T20:26:32.500Z,99.90
2023-04-14T20:29:00.964Z,99.90
2023-04-14T20:31:29.868Z,99.90
2023-04-14T20:33:58.105Z,99.90
2023-04-14T20:36:26.897Z,99.90
2023-04-14T20:38:55.110Z,99.90
2023-04-14T20:41:25.039Z,99.90
2023-04-14T20:43:53.243Z,99.90
2023-04-14T20:46:22.220Z,99.90
2023-04-14T20:48:50.507Z,99.90
2023-04-14T20:51:19.261Z,99.90
2023-04-14T20:53:47.641Z,99.90
2023-04-14T20:56:16.969Z,99.90
2023-04-14T20:58:46.639Z,99.90
2023-04-14T21:01:15.660Z,99.90
2023-04-14T21:03:43.953Z,99.90
2023-04-14T21:06:12.749Z,99.90
2023-04-14T21:08:40.948Z,99.90
2023-04-14T21:11:16.870Z,99.90
2023-04-14T21:15:30.912Z,99.90
2023-04-14T21:16:36.822Z,99.90
2023-04-14T21:19:05.817Z,99.90
2023-04-14T21:21:34.758Z,99.90
2023-04-14T21:24:03.405Z,99.90
2023-04-14T21:26:32.388Z,99.90
2023-04-14T21:29:02.132Z,99.90
2023-04-14T21:31:30.957Z,99.90
2023-04-14T21:34:00.608Z,99.90
2023-04-14T21:36:29.216Z,99.90
2023-04-14T21:38:58.402Z,99.90
2023-04-14T21:41:27.405Z,99.90
2023-04-14T21:43:55.742Z,99.90
2023-04-14T21:46:25.951Z,99.90
2023-04-14T21:48:54.295Z,99.90
2023-04-14T21:51:22.790Z,99.90
2023-04-14T21:53:51.009Z,99.90
2023-04-14T21:56:20.064Z,99.90
2023-04-14T21:58:48.404Z,99.90
2023-04-14T22:01:17.718Z,99.90
2023-04-14T22:03:47.637Z,99.90
2023-04-14T22:06:18.277Z,99.90
2023-04-14T22:08:46.496Z,99.90
2023-04-14T22:11:14.999Z,99.90
2023-04-14T22:13:43.295Z,99.90
2023-04-14T22:16:12.163Z,99.90
2023-04-14T22:18:40.713Z,99.90
2023-04-14T22:21:12.231Z,99.90
2023-04-14T22:23:40.950Z,99.90
2023-04-14T22:26:09.518Z,99.90
2023-04-14T22:28:37.876Z,99.90
2023-04-14T22:31:06.837Z,99.90
2023-04-14T22:33:35.930Z,99.90
2023-04-14T22:36:07.036Z,99.90
2023-04-14T22:38:36.543Z,99.90
2023-04-14T22:41:05.092Z,99.90
2023-04-14T22:43:33.268Z,99.90
2023-04-14T22:46:01.980Z,99.90
2023-04-14T22:48:30.224Z,99.90
2023-04-14T22:50:58.708Z,99.90
2023-04-14T22:53:26.986Z,99.90
2023-04-14T22:55:58.044Z,99.90
2023-04-14T22:58:26.477Z,99.90
2023-04-14T23:00:54.919Z,99.90
2023-04-14T23:03:23.522Z,99.90
2023-04-14T23:05:52.795Z,99.90
2023-04-14T23:08:21.400Z,99.90
2023-04-14T23:10:49.840Z,99.90
2023-04-14T23:13:19.506Z,99.90
2023-04-14T23:15:48.099Z,99.90
2023-04-14T23:18:21.915Z,99.90
2023-04-14T23:20:50.678Z,99.90
2023-04-14T23:23:18.933Z,99.90
2023-04-14T23:25:47.397Z,99.90
2023-04-14T23:28:15.646Z,99.90
2023-04-14T23:30:45.455Z,99.90
2023-04-14T23:33:13.745Z,99.90
2023-04-14T23:35:42.424Z,99.90
2023-04-14T23:38:10.604Z,99.90
2023-04-14T23:40:39.035Z,99.90
2023-04-14T23:43:07.219Z,99.90
2023-04-14T23:45:37.798Z,99.90
2023-04-14T23:48:08.386Z,99.90
2023-04-14T23:51:00.876Z,99.90
2023-04-14T23:53:26.380Z,99.90
2023-04-14T23:55:55.136Z,99.90
2023-04-14T23:58:26.860Z,99.90
